< < Back
Terminal Aerodrome Forecast


Current Version              Previous Versions:   1  2  3  4  5  6  7  8  9  

Terminal Aerodrome Forecast

777
FTUS44 KBMX 280500 RRA
TAFANB
TAF
KANB 280545Z 2806/2906 05007KT 3SM RA BR VCTS BKN006 OVC025CB
      TEMPO 2806/2808 2SM TSRA SCT007 OVC025CB
     FM280900 09006KT 2SM RA BR OVC005
     FM281800 22006KT 5SM SHRA BR OVC007=

Latest METAR

833
SAUS70 KWBC 290600 RRH
MTRANB
METAR KANB 290553Z AUTO 00000KT 6SM -RA BR SCT003 BKN040 OVC050 13/12
A3008 RMK AO2 RAB04 SLP188 P0001 60002 T01280117 10156 20122
401610117 51005


USA.gov is the U.S. government's official web portal to all federal, state and local government web resources and services.